Madrid, Alabama
Current Conditions -  °F | °C
As of 3:53 PM on Saturday 25 Oct 2014 (Local Time) from KDHN Reporting Station
Clear Clear  
Wind Chill: 77°   Ceiling: Unl
Heat Index: 78°   Visibility: 10mi
Dew Point: 48°   Wind: 10mph
Humidity: 36%   Direction: 310°NW
Pressure: 30.04"   Gusts: 17mph
Location:  31.0679°N, 85.3591°W
Report Text: KDHN 252053Z 31009G15KT 10SM CLR 25/09 A3004 RMK AO2 SLP168 T02500089 56012
Loading
Personal Weather Stations






























Interactive Weather Map
Tropical Storm Tracking
New forecast layout! Learn more

10-Day Weather Forecast

Advertisements
Track Severe Weather on mobile